sensor_id;sensor_type;location;lat;lon;timestamp;P1;durP1;ratioP1;P2;durP2;ratioP2
11514;SDS011;5814;41.936;25.556;2023-05-06T00:01:12;8.93;;;8.33;;
11514;SDS011;5814;41.936;25.556;2023-05-06T00:03:39;8.73;;;8.23;;
11514;SDS011;5814;41.936;25.556;2023-05-06T00:06:05;8.70;;;8.10;;
11514;SDS011;5814;41.936;25.556;2023-05-06T00:08:32;9.10;;;8.50;;
11514;SDS011;5814;41.936;25.556;2023-05-06T00:10:58;9.30;;;8.70;;
11514;SDS011;5814;41.936;25.556;2023-05-06T00:13:24;8.90;;;8.40;;
11514;SDS011;5814;41.936;25.556;2023-05-06T00:15:51;8.30;;;7.80;;
11514;SDS011;5814;41.936;25.556;2023-05-06T00:18:17;9.40;;;8.70;;
11514;SDS011;5814;41.936;25.556;2023-05-06T00:20:43;9.77;;;9.17;;
11514;SDS011;5814;41.936;25.556;2023-05-06T00:23:10;9.33;;;8.73;;
11514;SDS011;5814;41.936;25.556;2023-05-06T00:25:36;10.33;;;9.37;;
11514;SDS011;5814;41.936;25.556;2023-05-06T00:28:03;9.70;;;9.07;;
11514;SDS011;5814;41.936;25.556;2023-05-06T00:30:29;9.50;;;9.00;;
11514;SDS011;5814;41.936;25.556;2023-05-06T00:32:55;9.90;;;9.27;;
11514;SDS011;5814;41.936;25.556;2023-05-06T00:35:22;10.17;;;9.60;;
11514;SDS011;5814;41.936;25.556;2023-05-06T00:37:55;9.50;;;9.00;;
11514;SDS011;5814;41.936;25.556;2023-05-06T00:40:16;9.37;;;8.87;;
11514;SDS011;5814;41.936;25.556;2023-05-06T00:42:43;9.70;;;9.10;;
11514;SDS011;5814;41.936;25.556;2023-05-06T00:45:09;9.90;;;9.30;;
11514;SDS011;5814;41.936;25.556;2023-05-06T00:47:36;9.97;;;9.13;;
11514;SDS011;5814;41.936;25.556;2023-05-06T00:50:02;9.37;;;8.87;;
11514;SDS011;5814;41.936;25.556;2023-05-06T00:52:29;9.67;;;9.07;;
11514;SDS011;5814;41.936;25.556;2023-05-06T00:54:55;8.73;;;8.23;;
11514;SDS011;5814;41.936;25.556;2023-05-06T00:57:22;8.90;;;8.40;;
11514;SDS011;5814;41.936;25.556;2023-05-06T00:59:48;9.30;;;8.70;;
11514;SDS011;5814;41.936;25.556;2023-05-06T01:02:14;9.40;;;8.80;;
11514;SDS011;5814;41.936;25.556;2023-05-06T01:04:41;9.07;;;8.47;;
11514;SDS011;5814;41.936;25.556;2023-05-06T01:07:11;9.10;;;8.50;;
11514;SDS011;5814;41.936;25.556;2023-05-06T01:09:38;8.17;;;7.70;;
11514;SDS011;5814;41.936;25.556;2023-05-06T01:12:06;8.70;;;8.10;;
11514;SDS011;5814;41.936;25.556;2023-05-06T01:14:33;8.90;;;8.37;;
11514;SDS011;5814;41.936;25.556;2023-05-06T01:16:58;8.17;;;7.67;;
11514;SDS011;5814;41.936;25.556;2023-05-06T01:21:57;8.30;;;7.70;;
11514;SDS011;5814;41.936;25.556;2023-05-06T01:24:32;8.17;;;7.47;;
11514;SDS011;5814;41.936;25.556;2023-05-06T01:26:49;8.10;;;7.30;;
11514;SDS011;5814;41.936;25.556;2023-05-06T01:29:16;7.67;;;7.17;;
11514;SDS011;5814;41.936;25.556;2023-05-06T01:31:44;7.60;;;6.90;;
11514;SDS011;5814;41.936;25.556;2023-05-06T01:34:13;7.57;;;7.07;;
11514;SDS011;5814;41.936;25.556;2023-05-06T01:36:42;7.60;;;7.10;;
11514;SDS011;5814;41.936;25.556;2023-05-06T01:41:47;7.47;;;6.97;;
11514;SDS011;5814;41.936;25.556;2023-05-06T01:44:13;7.20;;;6.80;;
11514;SDS011;5814;41.936;25.556;2023-05-06T01:46:40;7.33;;;6.93;;
11514;SDS011;5814;41.936;25.556;2023-05-06T01:49:07;7.23;;;6.83;;
11514;SDS011;5814;41.936;25.556;2023-05-06T01:51:32;7.73;;;7.00;;
11514;SDS011;5814;41.936;25.556;2023-05-06T01:53:59;9.20;;;7.50;;
11514;SDS011;5814;41.936;25.556;2023-05-06T01:56:25;7.37;;;6.90;;
11514;SDS011;5814;41.936;25.556;2023-05-06T01:58:51;8.10;;;7.60;;
11514;SDS011;5814;41.936;25.556;2023-05-06T02:01:18;7.60;;;7.20;;
11514;SDS011;5814;41.936;25.556;2023-05-06T02:03:44;7.03;;;6.63;;
11514;SDS011;5814;41.936;25.556;2023-05-06T02:06:10;7.87;;;7.37;;
11514;SDS011;5814;41.936;25.556;2023-05-06T02:08:37;7.53;;;7.13;;
11514;SDS011;5814;41.936;25.556;2023-05-06T02:11:03;8.57;;;7.83;;
11514;SDS011;5814;41.936;25.556;2023-05-06T02:13:30;7.30;;;6.77;;
11514;SDS011;5814;41.936;25.556;2023-05-06T02:15:56;8.00;;;7.27;;
11514;SDS011;5814;41.936;25.556;2023-05-06T02:18:22;8.53;;;8.03;;
11514;SDS011;5814;41.936;25.556;2023-05-06T02:20:49;8.57;;;7.83;;
11514;SDS011;5814;41.936;25.556;2023-05-06T02:23:15;7.83;;;7.33;;
11514;SDS011;5814;41.936;25.556;2023-05-06T02:25:41;8.63;;;8.03;;
11514;SDS011;5814;41.936;25.556;2023-05-06T02:28:08;8.30;;;7.50;;
11514;SDS011;5814;41.936;25.556;2023-05-06T02:30:34;8.00;;;7.50;;
11514;SDS011;5814;41.936;25.556;2023-05-06T02:33:01;8.07;;;7.50;;
11514;SDS011;5814;41.936;25.556;2023-05-06T02:35:27;8.40;;;7.80;;
11514;SDS011;5814;41.936;25.556;2023-05-06T02:37:53;8.30;;;7.70;;
11514;SDS011;5814;41.936;25.556;2023-05-06T02:40:19;8.63;;;8.03;;
11514;SDS011;5814;41.936;25.556;2023-05-06T02:42:46;9.00;;;8.40;;
11514;SDS011;5814;41.936;25.556;2023-05-06T02:45:12;9.37;;;8.57;;
11514;SDS011;5814;41.936;25.556;2023-05-06T02:47:38;10.00;;;9.20;;
11514;SDS011;5814;41.936;25.556;2023-05-06T02:50:05;9.77;;;9.10;;
11514;SDS011;5814;41.936;25.556;2023-05-06T02:52:32;9.77;;;9.17;;
11514;SDS011;5814;41.936;25.556;2023-05-06T02:54:58;9.63;;;8.87;;
11514;SDS011;5814;41.936;25.556;2023-05-06T02:57:24;9.37;;;8.83;;
11514;SDS011;5814;41.936;25.556;2023-05-06T02:59:51;9.53;;;8.73;;
11514;SDS011;5814;41.936;25.556;2023-05-06T03:02:17;9.57;;;8.97;;
11514;SDS011;5814;41.936;25.556;2023-05-06T03:04:43;9.87;;;9.07;;
11514;SDS011;5814;41.936;25.556;2023-05-06T03:07:10;21.30;;;19.20;;
11514;SDS011;5814;41.936;25.556;2023-05-06T03:09:36;14.97;;;13.57;;
11514;SDS011;5814;41.936;25.556;2023-05-06T03:12:03;10.03;;;9.33;;
11514;SDS011;5814;41.936;25.556;2023-05-06T03:14:29;9.67;;;9.03;;
11514;SDS011;5814;41.936;25.556;2023-05-06T03:16:55;12.90;;;11.90;;
11514;SDS011;5814;41.936;25.556;2023-05-06T03:19:22;20.20;;;18.33;;
11514;SDS011;5814;41.936;25.556;2023-05-06T03:21:48;20.90;;;19.17;;
11514;SDS011;5814;41.936;25.556;2023-05-06T03:24:14;9.90;;;9.20;;
11514;SDS011;5814;41.936;25.556;2023-05-06T03:26:41;14.37;;;13.13;;
11514;SDS011;5814;41.936;25.556;2023-05-06T03:29:07;17.30;;;15.63;;
11514;SDS011;5814;41.936;25.556;2023-05-06T03:31:33;25.50;;;21.90;;
11514;SDS011;5814;41.936;25.556;2023-05-06T03:34:00;45.93;;;32.10;;
11514;SDS011;5814;41.936;25.556;2023-05-06T03:36:26;18.67;;;14.60;;
11514;SDS011;5814;41.936;25.556;2023-05-06T03:38:53;19.07;;;17.27;;
11514;SDS011;5814;41.936;25.556;2023-05-06T03:41:19;10.47;;;9.77;;
11514;SDS011;5814;41.936;25.556;2023-05-06T03:43:45;17.13;;;15.33;;
11514;SDS011;5814;41.936;25.556;2023-05-06T03:46:11;12.07;;;11.17;;
11514;SDS011;5814;41.936;25.556;2023-05-06T03:48:38;23.13;;;20.93;;
11514;SDS011;5814;41.936;25.556;2023-05-06T03:51:04;16.73;;;15.17;;
11514;SDS011;5814;41.936;25.556;2023-05-06T03:53:31;10.60;;;9.90;;
11514;SDS011;5814;41.936;25.556;2023-05-06T03:55:57;11.83;;;10.97;;
11514;SDS011;5814;41.936;25.556;2023-05-06T03:58:23;15.03;;;13.67;;
11514;SDS011;5814;41.936;25.556;2023-05-06T04:00:50;15.10;;;13.90;;
11514;SDS011;5814;41.936;25.556;2023-05-06T04:03:16;11.97;;;11.07;;
11514;SDS011;5814;41.936;25.556;2023-05-06T04:05:42;21.67;;;19.60;;
11514;SDS011;5814;41.936;25.556;2023-05-06T04:08:09;22.27;;;20.13;;
11514;SDS011;5814;41.936;25.556;2023-05-06T04:10:37;16.83;;;15.37;;
11514;SDS011;5814;41.936;25.556;2023-05-06T04:13:02;20.40;;;18.33;;
11514;SDS011;5814;41.936;25.556;2023-05-06T04:15:29;17.13;;;15.63;;
11514;SDS011;5814;41.936;25.556;2023-05-06T04:17:55;12.63;;;11.53;;
11514;SDS011;5814;41.936;25.556;2023-05-06T04:20:21;16.03;;;14.73;;
11514;SDS011;5814;41.936;25.556;2023-05-06T04:22:48;13.43;;;12.50;;
11514;SDS011;5814;41.936;25.556;2023-05-06T04:25:14;13.93;;;12.73;;
11514;SDS011;5814;41.936;25.556;2023-05-06T04:27:40;12.27;;;11.23;;
11514;SDS011;5814;41.936;25.556;2023-05-06T04:30:07;16.07;;;14.77;;
11514;SDS011;5814;41.936;25.556;2023-05-06T04:32:34;16.47;;;15.17;;
11514;SDS011;5814;41.936;25.556;2023-05-06T04:35:00;17.43;;;15.83;;
11514;SDS011;5814;41.936;25.556;2023-05-06T04:37:27;25.30;;;20.50;;
11514;SDS011;5814;41.936;25.556;2023-05-06T04:39:53;14.27;;;13.17;;
11514;SDS011;5814;41.936;25.556;2023-05-06T04:42:19;25.30;;;22.60;;
11514;SDS011;5814;41.936;25.556;2023-05-06T04:44:46;25.33;;;23.13;;
11514;SDS011;5814;41.936;25.556;2023-05-06T04:47:12;24.70;;;22.50;;
11514;SDS011;5814;41.936;25.556;2023-05-06T04:49:38;16.80;;;15.43;;
11514;SDS011;5814;41.936;25.556;2023-05-06T04:52:05;13.30;;;12.17;;
11514;SDS011;5814;41.936;25.556;2023-05-06T04:54:31;15.47;;;14.10;;
11514;SDS011;5814;41.936;25.556;2023-05-06T04:56:57;13.70;;;12.57;;
11514;SDS011;5814;41.936;25.556;2023-05-06T04:59:24;15.37;;;13.87;;
11514;SDS011;5814;41.936;25.556;2023-05-06T05:01:50;10.87;;;10.10;;
11514;SDS011;5814;41.936;25.556;2023-05-06T05:04:17;14.77;;;13.27;;
11514;SDS011;5814;41.936;25.556;2023-05-06T05:06:43;12.87;;;11.73;;
11514;SDS011;5814;41.936;25.556;2023-05-06T05:09:09;11.23;;;10.33;;
11514;SDS011;5814;41.936;25.556;2023-05-06T05:11:36;10.37;;;9.67;;
11514;SDS011;5814;41.936;25.556;2023-05-06T05:14:02;11.17;;;10.37;;
11514;SDS011;5814;41.936;25.556;2023-05-06T05:16:28;8.80;;;8.10;;
11514;SDS011;5814;41.936;25.556;2023-05-06T05:18:55;8.17;;;7.50;;
11514;SDS011;5814;41.936;25.556;2023-05-06T05:21:21;9.20;;;8.50;;
11514;SDS011;5814;41.936;25.556;2023-05-06T05:23:47;10.23;;;9.43;;
11514;SDS011;5814;41.936;25.556;2023-05-06T05:26:14;12.15;;;11.02;;
11514;SDS011;5814;41.936;25.556;2023-05-06T05:28:40;9.80;;;8.82;;
11514;SDS011;5814;41.936;25.556;2023-05-06T05:31:06;16.50;;;15.20;;
11514;SDS011;5814;41.936;25.556;2023-05-06T05:33:33;22.40;;;20.52;;
11514;SDS011;5814;41.936;25.556;2023-05-06T05:35:59;12.50;;;11.43;;
11514;SDS011;5814;41.936;25.556;2023-05-06T05:38:25;18.20;;;16.45;;
11514;SDS011;5814;41.936;25.556;2023-05-06T05:40:52;18.45;;;16.87;;
11514;SDS011;5814;41.936;25.556;2023-05-06T05:43:18;12.73;;;11.55;;
11514;SDS011;5814;41.936;25.556;2023-05-06T05:45:44;14.18;;;13.10;;
11514;SDS011;5814;41.936;25.556;2023-05-06T05:48:11;13.93;;;12.85;;
11514;SDS011;5814;41.936;25.556;2023-05-06T05:50:37;13.18;;;11.93;;
11514;SDS011;5814;41.936;25.556;2023-05-06T05:53:04;9.60;;;8.05;;
11514;SDS011;5814;41.936;25.556;2023-05-06T05:55:30;9.73;;;8.80;;
11514;SDS011;5814;41.936;25.556;2023-05-06T05:57:57;14.38;;;11.43;;
11514;SDS011;5814;41.936;25.556;2023-05-06T06:00:24;15.68;;;14.13;;
11514;SDS011;5814;41.936;25.556;2023-05-06T06:02:51;11.25;;;10.23;;
11514;SDS011;5814;41.936;25.556;2023-05-06T06:05:17;12.40;;;11.43;;
11514;SDS011;5814;41.936;25.556;2023-05-06T06:07:43;12.20;;;11.10;;
11514;SDS011;5814;41.936;25.556;2023-05-06T06:10:10;11.70;;;11.10;;
11514;SDS011;5814;41.936;25.556;2023-05-06T06:12:36;13.40;;;12.60;;
11514;SDS011;5814;41.936;25.556;2023-05-06T06:15:02;12.98;;;12.27;;
11514;SDS011;5814;41.936;25.556;2023-05-06T06:17:29;11.77;;;10.73;;
11514;SDS011;5814;41.936;25.556;2023-05-06T06:19:56;10.90;;;10.13;;
11514;SDS011;5814;41.936;25.556;2023-05-06T06:22:22;23.42;;;20.98;;
11514;SDS011;5814;41.936;25.556;2023-05-06T06:24:48;15.18;;;13.93;;
11514;SDS011;5814;41.936;25.556;2023-05-06T06:27:14;11.55;;;10.65;;
11514;SDS011;5814;41.936;25.556;2023-05-06T06:29:41;12.13;;;11.32;;
11514;SDS011;5814;41.936;25.556;2023-05-06T06:32:07;12.50;;;11.20;;
11514;SDS011;5814;41.936;25.556;2023-05-06T06:34:33;14.00;;;12.95;;
11514;SDS011;5814;41.936;25.556;2023-05-06T06:37:00;17.95;;;16.50;;
11514;SDS011;5814;41.936;25.556;2023-05-06T06:39:26;14.73;;;13.48;;
11514;SDS011;5814;41.936;25.556;2023-05-06T06:41:54;11.93;;;11.23;;
11514;SDS011;5814;41.936;25.556;2023-05-06T06:44:19;11.38;;;10.68;;
11514;SDS011;5814;41.936;25.556;2023-05-06T06:46:45;9.20;;;8.65;;
11514;SDS011;5814;41.936;25.556;2023-05-06T06:49:12;9.90;;;9.10;;
11514;SDS011;5814;41.936;25.556;2023-05-06T06:51:38;19.33;;;17.65;;
11514;SDS011;5814;41.936;25.556;2023-05-06T06:54:04;9.05;;;8.35;;
11514;SDS011;5814;41.936;25.556;2023-05-06T06:56:31;8.15;;;7.30;;
11514;SDS011;5814;41.936;25.556;2023-05-06T06:58:57;8.02;;;7.37;;
11514;SDS011;5814;41.936;25.556;2023-05-06T07:01:23;9.55;;;8.32;;
11514;SDS011;5814;41.936;25.556;2023-05-06T07:03:50;8.05;;;7.35;;
11514;SDS011;5814;41.936;25.556;2023-05-06T07:06:16;7.80;;;7.22;;
11514;SDS011;5814;41.936;25.556;2023-05-06T07:08:43;11.23;;;8.73;;
11514;SDS011;5814;41.936;25.556;2023-05-06T07:11:09;9.38;;;8.77;;
11514;SDS011;5814;41.936;25.556;2023-05-06T07:13:35;8.63;;;8.02;;
11514;SDS011;5814;41.936;25.556;2023-05-06T07:16:02;8.98;;;8.38;;
11514;SDS011;5814;41.936;25.556;2023-05-06T07:18:29;9.05;;;8.25;;
11514;SDS011;5814;41.936;25.556;2023-05-06T07:20:55;10.57;;;7.82;;
11514;SDS011;5814;41.936;25.556;2023-05-06T07:23:21;8.73;;;7.90;;
11514;SDS011;5814;41.936;25.556;2023-05-06T07:25:48;9.38;;;8.35;;
11514;SDS011;5814;41.936;25.556;2023-05-06T07:28:14;8.63;;;8.02;;
11514;SDS011;5814;41.936;25.556;2023-05-06T07:30:40;8.52;;;7.85;;
11514;SDS011;5814;41.936;25.556;2023-05-06T07:33:07;9.40;;;8.65;;
11514;SDS011;5814;41.936;25.556;2023-05-06T07:35:33;11.63;;;10.68;;
11514;SDS011;5814;41.936;25.556;2023-05-06T07:38:00;8.90;;;8.30;;
11514;SDS011;5814;41.936;25.556;2023-05-06T07:40:26;9.38;;;8.38;;
11514;SDS011;5814;41.936;25.556;2023-05-06T07:42:52;9.65;;;9.00;;
11514;SDS011;5814;41.936;25.556;2023-05-06T07:45:19;8.48;;;7.97;;
11514;SDS011;5814;41.936;25.556;2023-05-06T07:47:45;8.48;;;7.62;;
11514;SDS011;5814;41.936;25.556;2023-05-06T07:50:11;8.93;;;8.23;;
11514;SDS011;5814;41.936;25.556;2023-05-06T07:52:38;9.27;;;8.55;;
11514;SDS011;5814;41.936;25.556;2023-05-06T07:55:04;9.07;;;8.45;;
11514;SDS011;5814;41.936;25.556;2023-05-06T07:57:31;8.27;;;7.68;;
11514;SDS011;5814;41.936;25.556;2023-05-06T07:59:57;8.27;;;7.57;;
11514;SDS011;5814;41.936;25.556;2023-05-06T08:02:23;8.80;;;8.07;;
11514;SDS011;5814;41.936;25.556;2023-05-06T08:04:50;9.57;;;8.88;;
11514;SDS011;5814;41.936;25.556;2023-05-06T08:07:16;8.25;;;7.65;;
11514;SDS011;5814;41.936;25.556;2023-05-06T08:09:43;8.45;;;7.70;;
11514;SDS011;5814;41.936;25.556;2023-05-06T08:12:09;7.32;;;6.65;;
11514;SDS011;5814;41.936;25.556;2023-05-06T08:14:35;8.43;;;7.68;;
11514;SDS011;5814;41.936;25.556;2023-05-06T08:17:02;6.93;;;6.43;;
11514;SDS011;5814;41.936;25.556;2023-05-06T08:19:28;6.00;;;5.60;;
11514;SDS011;5814;41.936;25.556;2023-05-06T08:21:54;6.65;;;6.22;;
11514;SDS011;5814;41.936;25.556;2023-05-06T08:24:21;6.45;;;6.00;;
11514;SDS011;5814;41.936;25.556;2023-05-06T08:26:47;8.40;;;5.90;;
11514;SDS011;5814;41.936;25.556;2023-05-06T08:29:13;7.05;;;5.90;;
11514;SDS011;5814;41.936;25.556;2023-05-06T08:31:40;8.02;;;5.72;;
11514;SDS011;5814;41.936;25.556;2023-05-06T08:34:06;5.95;;;5.55;;
11514;SDS011;5814;41.936;25.556;2023-05-06T08:36:32;7.80;;;6.47;;
11514;SDS011;5814;41.936;25.556;2023-05-06T08:38:59;6.55;;;5.60;;
11514;SDS011;5814;41.936;25.556;2023-05-06T08:41:25;10.57;;;5.68;;
11514;SDS011;5814;41.936;25.556;2023-05-06T08:43:52;5.30;;;4.87;;
11514;SDS011;5814;41.936;25.556;2023-05-06T08:46:18;7.50;;;6.78;;
11514;SDS011;5814;41.936;25.556;2023-05-06T08:48:44;6.32;;;5.72;;
11514;SDS011;5814;41.936;25.556;2023-05-06T08:51:12;6.37;;;5.78;;
11514;SDS011;5814;41.936;25.556;2023-05-06T08:53:37;6.43;;;5.00;;
11514;SDS011;5814;41.936;25.556;2023-05-06T08:56:05;5.30;;;5.00;;
11514;SDS011;5814;41.936;25.556;2023-05-06T08:58:32;5.45;;;5.15;;
11514;SDS011;5814;41.936;25.556;2023-05-06T09:00:58;5.62;;;5.22;;
11514;SDS011;5814;41.936;25.556;2023-05-06T09:03:24;5.78;;;5.30;;
11514;SDS011;5814;41.936;25.556;2023-05-06T09:05:51;5.30;;;5.00;;
11514;SDS011;5814;41.936;25.556;2023-05-06T09:08:17;5.55;;;4.90;;
11514;SDS011;5814;41.936;25.556;2023-05-06T09:10:44;5.60;;;5.15;;
11514;SDS011;5814;41.936;25.556;2023-05-06T09:13:11;5.82;;;5.32;;
11514;SDS011;5814;41.936;25.556;2023-05-06T09:15:38;6.32;;;5.22;;
11514;SDS011;5814;41.936;25.556;2023-05-06T09:18:04;5.07;;;4.68;;
11514;SDS011;5814;41.936;25.556;2023-05-06T09:20:33;5.22;;;4.93;;
11514;SDS011;5814;41.936;25.556;2023-05-06T09:22:59;5.32;;;5.03;;
11514;SDS011;5814;41.936;25.556;2023-05-06T09:25:26;5.80;;;5.32;;
11514;SDS011;5814;41.936;25.556;2023-05-06T09:28:01;5.57;;;5.07;;
11514;SDS011;5814;41.936;25.556;2023-05-06T09:30:19;5.30;;;5.00;;
11514;SDS011;5814;41.936;25.556;2023-05-06T09:32:45;6.05;;;5.00;;
11514;SDS011;5814;41.936;25.556;2023-05-06T09:35:11;5.40;;;5.10;;
11514;SDS011;5814;41.936;25.556;2023-05-06T09:37:37;5.60;;;5.10;;
11514;SDS011;5814;41.936;25.556;2023-05-06T09:40:04;5.57;;;5.15;;
11514;SDS011;5814;41.936;25.556;2023-05-06T09:42:31;5.57;;;5.07;;
11514;SDS011;5814;41.936;25.556;2023-05-06T09:44:58;4.90;;;4.65;;
11514;SDS011;5814;41.936;25.556;2023-05-06T09:47:24;5.53;;;5.18;;
11514;SDS011;5814;41.936;25.556;2023-05-06T09:49:50;5.70;;;5.20;;
11514;SDS011;5814;41.936;25.556;2023-05-06T09:52:16;5.90;;;5.40;;
11514;SDS011;5814;41.936;25.556;2023-05-06T09:54:42;5.43;;;5.05;;
11514;SDS011;5814;41.936;25.556;2023-05-06T09:57:09;5.50;;;5.20;;
11514;SDS011;5814;41.936;25.556;2023-05-06T09:59:35;5.22;;;4.93;;
11514;SDS011;5814;41.936;25.556;2023-05-06T10:02:01;5.87;;;5.47;;
11514;SDS011;5814;41.936;25.556;2023-05-06T10:04:28;5.57;;;5.18;;
11514;SDS011;5814;41.936;25.556;2023-05-06T10:06:54;6.20;;;5.70;;
11514;SDS011;5814;41.936;25.556;2023-05-06T10:09:22;5.30;;;5.00;;
11514;SDS011;5814;41.936;25.556;2023-05-06T10:11:47;5.80;;;5.20;;
11514;SDS011;5814;41.936;25.556;2023-05-06T10:14:13;4.95;;;4.75;;
11514;SDS011;5814;41.936;25.556;2023-05-06T10:16:39;4.60;;;4.40;;
11514;SDS011;5814;41.936;25.556;2023-05-06T10:19:06;5.57;;;5.07;;
11514;SDS011;5814;41.936;25.556;2023-05-06T10:21:32;5.37;;;5.07;;
11514;SDS011;5814;41.936;25.556;2023-05-06T10:24:01;5.40;;;5.03;;
11514;SDS011;5814;41.936;25.556;2023-05-06T10:26:25;5.50;;;5.20;;
11514;SDS011;5814;41.936;25.556;2023-05-06T10:28:52;5.50;;;5.10;;
11514;SDS011;5814;41.936;25.556;2023-05-06T10:31:17;6.35;;;5.70;;
11514;SDS011;5814;41.936;25.556;2023-05-06T10:33:45;5.62;;;5.22;;
11514;SDS011;5814;41.936;25.556;2023-05-06T10:36:12;5.85;;;5.45;;
11514;SDS011;5814;41.936;25.556;2023-05-06T10:38:39;6.07;;;5.57;;
11514;SDS011;5814;41.936;25.556;2023-05-06T10:41:03;6.20;;;5.78;;
11514;SDS011;5814;41.936;25.556;2023-05-06T10:43:30;7.65;;;5.45;;
11514;SDS011;5814;41.936;25.556;2023-05-06T10:45:58;7.47;;;6.78;;
11514;SDS011;5814;41.936;25.556;2023-05-06T10:48:24;6.90;;;5.05;;
11514;SDS011;5814;41.936;25.556;2023-05-06T10:50:50;5.50;;;5.10;;
11514;SDS011;5814;41.936;25.556;2023-05-06T10:53:16;5.35;;;4.90;;
11514;SDS011;5814;41.936;25.556;2023-05-06T10:55:43;5.82;;;5.43;;
11514;SDS011;5814;41.936;25.556;2023-05-06T10:58:16;6.07;;;5.57;;
11514;SDS011;5814;41.936;25.556;2023-05-06T11:00:51;5.43;;;5.07;;
11514;SDS011;5814;41.936;25.556;2023-05-06T11:03:10;8.93;;;5.78;;
11514;SDS011;5814;41.936;25.556;2023-05-06T11:08:08;6.05;;;5.45;;
11514;SDS011;5814;41.936;25.556;2023-05-06T11:10:35;6.00;;;5.32;;
11514;SDS011;5814;41.936;25.556;2023-05-06T11:15:38;5.95;;;5.57;;
11514;SDS011;5814;41.936;25.556;2023-05-06T11:18:41;6.18;;;5.68;;
11514;SDS011;5814;41.936;25.556;2023-05-06T11:26:22;5.28;;;4.95;;
11514;SDS011;5814;41.936;25.556;2023-05-06T11:28:48;4.65;;;4.37;;
11514;SDS011;5814;41.936;25.556;2023-05-06T11:31:14;5.07;;;4.65;;
11514;SDS011;5814;41.936;25.556;2023-05-06T11:33:44;5.60;;;5.20;;
11514;SDS011;5814;41.936;25.556;2023-05-06T11:36:13;5.75;;;5.22;;
11514;SDS011;5814;41.936;25.556;2023-05-06T11:38:43;5.68;;;5.37;;
11514;SDS011;5814;41.936;25.556;2023-05-06T11:41:09;6.15;;;5.60;;
11514;SDS011;5814;41.936;25.556;2023-05-06T11:43:35;5.97;;;5.57;;
11514;SDS011;5814;41.936;25.556;2023-05-06T11:46:01;5.80;;;5.30;;
11514;SDS011;5814;41.936;25.556;2023-05-06T11:48:28;5.70;;;5.40;;
11514;SDS011;5814;41.936;25.556;2023-05-06T11:50:54;5.82;;;5.43;;
11514;SDS011;5814;41.936;25.556;2023-05-06T11:53:22;5.55;;;5.25;;
11514;SDS011;5814;41.936;25.556;2023-05-06T11:55:47;7.18;;;5.57;;
11514;SDS011;5814;41.936;25.556;2023-05-06T11:58:13;5.45;;;5.10;;
11514;SDS011;5814;41.936;25.556;2023-05-06T12:00:46;5.55;;;5.25;;
11514;SDS011;5814;41.936;25.556;2023-05-06T12:03:13;5.22;;;4.87;;
11514;SDS011;5814;41.936;25.556;2023-05-06T12:05:40;5.70;;;5.30;;
11514;SDS011;5814;41.936;25.556;2023-05-06T12:08:05;5.80;;;5.28;;
11514;SDS011;5814;41.936;25.556;2023-05-06T12:10:31;5.43;;;5.10;;
11514;SDS011;5814;41.936;25.556;2023-05-06T12:12:58;5.57;;;5.18;;
11514;SDS011;5814;41.936;25.556;2023-05-06T12:15:24;5.43;;;5.12;;
11514;SDS011;5814;41.936;25.556;2023-05-06T12:17:51;5.75;;;5.20;;
11514;SDS011;5814;41.936;25.556;2023-05-06T12:20:17;5.75;;;5.32;;
11514;SDS011;5814;41.936;25.556;2023-05-06T12:22:43;5.45;;;5.00;;
11514;SDS011;5814;41.936;25.556;2023-05-06T12:25:12;5.43;;;4.95;;
11514;SDS011;5814;41.936;25.556;2023-05-06T12:27:38;5.47;;;5.18;;
11514;SDS011;5814;41.936;25.556;2023-05-06T12:30:04;5.62;;;5.22;;
11514;SDS011;5814;41.936;25.556;2023-05-06T12:32:31;5.37;;;5.07;;
11514;SDS011;5814;41.936;25.556;2023-05-06T12:34:57;5.05;;;4.65;;
11514;SDS011;5814;41.936;25.556;2023-05-06T12:37:25;5.30;;;4.97;;
11514;SDS011;5814;41.936;25.556;2023-05-06T12:39:50;5.35;;;5.03;;
11514;SDS011;5814;41.936;25.556;2023-05-06T12:42:19;5.50;;;5.10;;
11514;SDS011;5814;41.936;25.556;2023-05-06T12:44:45;5.32;;;5.03;;
11514;SDS011;5814;41.936;25.556;2023-05-06T12:49:44;5.80;;;5.05;;
11514;SDS011;5814;41.936;25.556;2023-05-06T12:52:10;5.20;;;4.90;;
11514;SDS011;5814;41.936;25.556;2023-05-06T12:54:36;5.47;;;5.18;;
11514;SDS011;5814;41.936;25.556;2023-05-06T12:57:03;5.22;;;4.82;;
11514;SDS011;5814;41.936;25.556;2023-05-06T12:59:29;6.03;;;5.43;;
11514;SDS011;5814;41.936;25.556;2023-05-06T13:01:55;5.60;;;5.12;;
11514;SDS011;5814;41.936;25.556;2023-05-06T13:04:21;5.40;;;5.00;;
11514;SDS011;5814;41.936;25.556;2023-05-06T13:06:48;5.57;;;5.18;;
11514;SDS011;5814;41.936;25.556;2023-05-06T13:09:14;6.18;;;5.55;;
11514;SDS011;5814;41.936;25.556;2023-05-06T13:11:41;5.87;;;5.37;;
11514;SDS011;5814;41.936;25.556;2023-05-06T13:14:07;4.72;;;4.50;;
11514;SDS011;5814;41.936;25.556;2023-05-06T13:16:33;5.37;;;5.10;;
11514;SDS011;5814;41.936;25.556;2023-05-06T13:19:00;5.85;;;5.45;;
11514;SDS011;5814;41.936;25.556;2023-05-06T13:21:26;5.55;;;5.15;;
11514;SDS011;5814;41.936;25.556;2023-05-06T13:23:52;5.03;;;4.62;;
11514;SDS011;5814;41.936;25.556;2023-05-06T13:26:19;6.05;;;5.62;;
11514;SDS011;5814;41.936;25.556;2023-05-06T13:28:45;5.53;;;5.10;;
11514;SDS011;5814;41.936;25.556;2023-05-06T13:31:11;5.43;;;4.93;;
11514;SDS011;5814;41.936;25.556;2023-05-06T13:33:38;5.70;;;5.30;;
11514;SDS011;5814;41.936;25.556;2023-05-06T13:36:04;5.55;;;5.15;;
11514;SDS011;5814;41.936;25.556;2023-05-06T13:38:30;7.45;;;5.43;;
11514;SDS011;5814;41.936;25.556;2023-05-06T13:40:57;5.35;;;5.05;;
11514;SDS011;5814;41.936;25.556;2023-05-06T13:43:23;5.78;;;5.03;;
11514;SDS011;5814;41.936;25.556;2023-05-06T13:45:50;5.30;;;5.00;;
11514;SDS011;5814;41.936;25.556;2023-05-06T13:48:16;5.72;;;5.32;;
11514;SDS011;5814;41.936;25.556;2023-05-06T13:50:44;5.03;;;4.70;;
11514;SDS011;5814;41.936;25.556;2023-05-06T13:53:10;5.22;;;4.93;;
11514;SDS011;5814;41.936;25.556;2023-05-06T13:55:36;5.53;;;5.18;;
11514;SDS011;5814;41.936;25.556;2023-05-06T13:58:03;5.55;;;5.00;;
11514;SDS011;5814;41.936;25.556;2023-05-06T14:00:29;4.90;;;4.53;;
11514;SDS011;5814;41.936;25.556;2023-05-06T14:02:55;5.53;;;5.07;;
11514;SDS011;5814;41.936;25.556;2023-05-06T14:05:21;5.35;;;5.05;;
11514;SDS011;5814;41.936;25.556;2023-05-06T14:07:48;9.02;;;4.68;;
11514;SDS011;5814;41.936;25.556;2023-05-06T14:10:14;5.28;;;4.97;;
11514;SDS011;5814;41.936;25.556;2023-05-06T14:12:40;5.00;;;4.60;;
11514;SDS011;5814;41.936;25.556;2023-05-06T14:15:07;5.25;;;4.95;;
11514;SDS011;5814;41.936;25.556;2023-05-06T14:17:33;5.40;;;5.10;;
11514;SDS011;5814;41.936;25.556;2023-05-06T14:20:00;6.10;;;5.70;;
11514;SDS011;5814;41.936;25.556;2023-05-06T14:22:27;5.55;;;5.22;;
11514;SDS011;5814;41.936;25.556;2023-05-06T14:24:52;5.28;;;4.97;;
11514;SDS011;5814;41.936;25.556;2023-05-06T14:27:19;5.80;;;5.40;;
11514;SDS011;5814;41.936;25.556;2023-05-06T14:29:45;5.43;;;5.00;;
11514;SDS011;5814;41.936;25.556;2023-05-06T14:32:12;5.43;;;5.03;;
11514;SDS011;5814;41.936;25.556;2023-05-06T14:34:38;5.40;;;5.10;;
11514;SDS011;5814;41.936;25.556;2023-05-06T14:37:04;5.72;;;5.07;;
11514;SDS011;5814;41.936;25.556;2023-05-06T14:39:30;6.07;;;5.47;;
11514;SDS011;5814;41.936;25.556;2023-05-06T14:41:57;5.57;;;5.22;;
11514;SDS011;5814;41.936;25.556;2023-05-06T14:44:23;5.53;;;5.22;;
11514;SDS011;5814;41.936;25.556;2023-05-06T14:46:50;5.87;;;5.47;;
11514;SDS011;5814;41.936;25.556;2023-05-06T14:49:16;6.10;;;5.57;;
11514;SDS011;5814;41.936;25.556;2023-05-06T14:51:42;5.37;;;5.07;;
11514;SDS011;5814;41.936;25.556;2023-05-06T14:54:09;5.82;;;5.53;;